Time;durP1;ratioP1;P1;durP2;ratioP2;P2;SDS_P1;SDS_P2;PMS_P1;PMS_P2;Temp;Humidity;BMP_temperature;BMP_pressure;BME280_temperature;BME280_humidity;BME280_pressure;Samples;Min_cycle;Max_cycle;Signal;HPM_P1;HPM_P2
2023/03/04 00:02:19;;;;;;;;;;;;;;;8.36;64.68;102604.53;7356542;19;19978;-62
2023/03/04 00:04:46;;;;;;;;;;;;;;;8.34;64.87;102617.72;7359612;19;20367;-60
2023/03/04 00:07:17;;;;;;;;;;;;;;;8.23;64.51;102611.44;7356338;19;19927;-61
2023/03/04 00:09:45;;;;;;;;;;;;;;;8.19;64.81;102613.38;7361861;19;19926;-63
2023/03/04 00:12:12;;;;;;;;;;;;;;;8.14;65.19;102613.66;7360164;19;19911;-61
2023/03/04 00:14:39;;;;;;;;;;;;;;;8.12;65.34;102607.69;7357824;19;19914;-59
2023/03/04 00:17:06;;;;;;;;;;;;;;;8.09;65.56;102605.22;7354192;19;19919;-62
2023/03/04 00:19:34;;;;;;;;;;;;;;;8.10;66.46;102606.09;7360265;19;20340;-62
2023/03/04 00:22:01;;;;;;;;;;;;;;;8.11;66.11;102598.13;7355714;19;20000;-63
2023/03/04 00:24:28;;;;;;;;;;;;;;;8.14;66.65;102602.34;7287392;19;19926;-60
2023/03/04 00:26:55;;;;;;;;;;;;;;;8.07;66.66;102601.88;7355358;19;19919;-60
2023/03/04 00:29:22;;;;;;;;;;;;;;;8.12;67.25;102605.06;7358290;19;20249;-62
2023/03/04 00:31:49;;;;;;;;;;;;;;;8.11;67.89;102605.16;7354583;19;19930;-61
2023/03/04 00:34:16;;;;;;;;;;;;;;;8.16;67.52;102600.47;7358647;19;19980;-62
2023/03/04 00:36:43;;;;;;;;;;;;;;;8.21;69.31;102603.66;7353987;19;19930;-60
2023/03/04 00:39:11;;;;;;;;;;;;;;;8.24;66.87;102600.00;7357292;19;20431;-59
2023/03/04 00:41:38;;;;;;;;;;;;;;;8.24;66.76;102598.22;7357995;19;19918;-60
2023/03/04 00:44:05;;;;;;;;;;;;;;;8.23;65.82;102596.53;7350586;19;19933;-62
2023/03/04 00:46:32;;;;;;;;;;;;;;;8.23;66.12;102585.22;7353909;19;20279;-60
2023/03/04 00:48:59;;;;;;;;;;;;;;;8.19;66.92;102595.03;7282816;19;20280;-59
2023/03/04 00:51:26;;;;;;;;;;;;;;;8.15;66.44;102590.91;7348738;19;19933;-61
2023/03/04 00:53:53;;;;;;;;;;;;;;;8.10;65.69;102587.72;7355765;19;19933;-63
2023/03/04 00:56:20;;;;;;;;;;;;;;;8.09;66.75;102586.88;7355294;19;20482;-61
2023/03/04 00:58:50;;;;;;;;;;;;;;;8.07;66.52;102611.53;7353893;19;20869;-59
2023/03/04 01:01:17;;;;;;;;;;;;;;;8.03;66.36;102592.50;7353192;19;20318;-60
2023/03/04 01:03:44;;;;;;;;;;;;;;;8.03;66.61;102595.13;7354260;19;19929;-61
2023/03/04 01:06:11;;;;;;;;;;;;;;;8.01;66.66;102590.91;7357559;19;19950;-61
2023/03/04 01:08:38;;;;;;;;;;;;;;;8.06;66.61;102584.47;7355426;19;19929;-61
2023/03/04 01:11:05;;;;;;;;;;;;;;;8.08;66.63;102579.09;7356361;19;19937;-58
2023/03/04 01:13:32;;;;;;;;;;;;;;;8.08;67.69;102586.97;7357439;19;19914;-64
2023/03/04 01:15:59;;;;;;;;;;;;;;;8.10;67.03;102590.34;7284035;19;19949;-64
2023/03/04 01:18:26;;;;;;;;;;;;;;;8.10;67.33;102590.34;7355883;19;19922;-63
2023/03/04 01:20:53;;;;;;;;;;;;;;;8.11;67.03;102590.28;7354416;19;19923;-63
2023/03/04 01:23:20;;;;;;;;;;;;;;;8.15;66.69;102591.75;7351852;19;20592;-63
2023/03/04 01:25:47;;;;;;;;;;;;;;;8.09;66.40;102588.66;7356546;19;20577;-64
2023/03/04 01:28:14;;;;;;;;;;;;;;;8.08;67.07;102593.06;7353934;19;21508;-64
2023/03/04 01:30:41;;;;;;;;;;;;;;;8.07;67.74;102594.03;7353634;19;19914;-65
2023/03/04 01:33:08;;;;;;;;;;;;;;;8.08;67.62;102592.22;7355652;19;20312;-64
2023/03/04 01:35:35;;;;;;;;;;;;;;;8.09;67.42;102597.38;7356926;19;19922;-63
2023/03/04 01:38:02;;;;;;;;;;;;;;;8.08;67.96;102587.81;7353346;19;20379;-63
2023/03/04 01:40:30;;;;;;;;;;;;;;;8.08;68.04;102579.94;7333033;19;20025;-62
2023/03/04 01:42:57;;;;;;;;;;;;;;;8.04;68.33;102583.69;7330074;19;19926;-63
2023/03/04 01:45:24;;;;;;;;;;;;;;;7.99;68.65;102585.75;7352657;19;20485;-64
2023/03/04 01:47:51;;;;;;;;;;;;;;;8.01;69.34;102576.03;7353959;19;19926;-64
2023/03/04 01:50:21;;;;;;;;;;;;;;;7.99;69.81;102585.75;7354583;19;20218;-64
2023/03/04 01:52:48;;;;;;;;;;;;;;;7.95;69.58;102571.16;7351680;19;20259;-63
2023/03/04 01:55:19;;;;;;;;;;;;;;;7.99;69.59;102577.03;7355338;19;19927;-63
2023/03/04 01:57:47;;;;;;;;;;;;;;;8.02;69.06;102580.34;7354689;19;20045;-63
2023/03/04 02:00:18;;;;;;;;;;;;;;;8.01;69.34;102572.56;7352945;19;20019;-64
2023/03/04 02:02:46;;;;;;;;;;;;;;;7.86;69.70;102568.25;7351979;19;19923;-63
2023/03/04 02:05:13;;;;;;;;;;;;;;;7.86;69.84;102565.63;7345111;19;19929;-63
2023/03/04 02:07:42;;;;;;;;;;;;;;;7.77;70.24;102563.56;7296266;19;19926;-64
2023/03/04 02:10:10;;;;;;;;;;;;;;;7.80;70.43;102566.84;7354734;19;20014;-64
2023/03/04 02:12:37;;;;;;;;;;;;;;;7.77;70.33;102556.56;7354777;19;21208;-65
2023/03/04 02:15:05;;;;;;;;;;;;;;;7.78;71.30;102552.13;7351218;19;19998;-63
2023/03/04 02:17:32;;;;;;;;;;;;;;;7.80;71.78;102542.41;7353780;19;19937;-63
2023/03/04 02:20:00;;;;;;;;;;;;;;;7.86;70.63;102555.16;7357510;19;19923;-62
2023/03/04 02:22:27;;;;;;;;;;;;;;;7.88;69.84;102548.03;7355467;19;20557;-63
2023/03/04 02:24:59;;;;;;;;;;;;;;;7.88;70.22;102546.25;7354731;19;20539;-63
2023/03/04 02:27:26;;;;;;;;;;;;;;;7.93;69.94;102546.81;7355070;19;20010;-64
2023/03/04 02:29:53;;;;;;;;;;;;;;;7.98;69.23;102543.91;7354939;19;19926;-63
2023/03/04 02:32:20;;;;;;;;;;;;;;;7.99;69.00;102541.19;7273669;19;19951;-63
2023/03/04 02:34:48;;;;;;;;;;;;;;;7.96;68.21;102543.19;7353961;19;19998;-63
2023/03/04 02:37:16;;;;;;;;;;;;;;;7.98;67.93;102543.91;7351122;19;19986;-63
2023/03/04 02:39:44;;;;;;;;;;;;;;;7.98;68.91;102547.38;7356117;19;20538;-65
2023/03/04 02:42:12;;;;;;;;;;;;;;;8.01;66.72;102538.50;7357850;19;19952;-64
2023/03/04 02:44:40;;;;;;;;;;;;;;;8.01;66.92;102541.13;7355089;19;20702;-63
2023/03/04 02:47:09;;;;;;;;;;;;;;;7.99;67.18;102529.88;7356554;19;19963;-63
2023/03/04 02:49:38;;;;;;;;;;;;;;;8.00;68.25;102539.44;7363599;19;19970;-63
2023/03/04 02:52:06;;;;;;;;;;;;;;;8.01;66.66;102528.00;7357256;19;19960;-63
2023/03/04 02:54:34;;;;;;;;;;;;;;;8.01;66.87;102525.38;7359274;19;20321;-63
2023/03/04 02:57:03;;;;;;;;;;;;;;;8.03;66.64;102531.38;7289590;19;22310;-64
2023/03/04 02:59:30;;;;;;;;;;;;;;;8.05;66.69;102527.72;7353263;19;20403;-63
2023/03/04 03:01:57;;;;;;;;;;;;;;;8.09;66.34;102521.34;7357334;19;19915;-63
2023/03/04 03:04:24;;;;;;;;;;;;;;;8.09;66.22;102520.50;7360346;19;19994;-63
2023/03/04 03:06:51;;;;;;;;;;;;;;;8.07;66.58;102530.25;7357965;19;19922;-63
2023/03/04 03:09:19;;;;;;;;;;;;;;;8.01;66.46;102525.38;7360476;19;19923;-64
2023/03/04 03:11:47;;;;;;;;;;;;;;;7.99;66.36;102515.00;7359718;19;19990;-63
2023/03/04 03:14:14;;;;;;;;;;;;;;;7.97;66.56;102516.88;7358555;19;19986;-64
2023/03/04 03:16:42;;;;;;;;;;;;;;;7.99;66.50;102508.91;7358808;19;19930;-63
2023/03/04 03:19:09;;;;;;;;;;;;;;;7.97;66.97;102505.56;7373325;19;19919;-64
2023/03/04 03:21:37;;;;;;;;;;;;;;;7.80;67.34;102503.09;7367017;19;19915;-64
2023/03/04 03:24:04;;;;;;;;;;;;;;;7.86;67.12;102514.06;7362913;19;19922;-63
2023/03/04 03:26:31;;;;;;;;;;;;;;;7.87;67.64;102507.91;7361188;19;21738;-58
2023/03/04 03:28:58;;;;;;;;;;;;;;;7.88;67.81;102503.47;7360985;19;19961;-61
2023/03/04 03:31:25;;;;;;;;;;;;;;;7.87;67.50;102510.53;7354739;19;19918;-61
2023/03/04 03:33:52;;;;;;;;;;;;;;;7.86;67.50;102511.44;7358720;19;19915;-61
2023/03/04 03:36:20;;;;;;;;;;;;;;;7.88;67.35;102509.56;7363582;19;19915;-61
2023/03/04 03:38:47;;;;;;;;;;;;;;;7.90;68.97;102509.47;7360253;19;19915;-57
2023/03/04 03:41:13;;;;;;;;;;;;;;;7.89;68.67;102515.66;7360859;19;19962;-59
2023/03/04 03:43:40;;;;;;;;;;;;;;;7.92;67.80;102526.81;7361803;19;19918;-63
2023/03/04 03:46:07;;;;;;;;;;;;;;;7.91;67.71;102521.66;7358227;19;19926;-59
2023/03/04 03:48:34;;;;;;;;;;;;;;;7.92;67.79;102511.09;7359262;19;19933;-59
2023/03/04 03:51:01;;;;;;;;;;;;;;;7.91;67.84;102513.78;7359086;19;20446;-60
2023/03/04 03:53:28;;;;;;;;;;;;;;;7.87;67.93;102513.13;7358276;19;20468;-61
2023/03/04 03:55:55;;;;;;;;;;;;;;;7.83;68.46;102503.75;7360774;19;20480;-60
2023/03/04 03:58:22;;;;;;;;;;;;;;;7.86;68.04;102514.06;7362770;19;19933;-62
2023/03/04 04:00:49;;;;;;;;;;;;;;;7.89;68.01;102513.88;7352690;19;20042;-59
2023/03/04 04:03:16;;;;;;;;;;;;;;;7.91;68.10;102506.78;7361509;19;19918;-60
2023/03/04 04:05:43;;;;;;;;;;;;;;;7.90;68.84;102502.47;7358646;19;19937;-63
2023/03/04 04:08:12;;;;;;;;;;;;;;;7.94;68.80;102501.31;7360683;19;20442;-60
2023/03/04 04:10:39;;;;;;;;;;;;;;;7.94;68.56;102500.47;7361989;19;20271;-60
2023/03/04 04:13:06;;;;;;;;;;;;;;;7.96;68.51;102502.09;7360107;19;19918;-61
2023/03/04 04:15:32;;;;;;;;;;;;;;;7.96;69.02;102502.09;7357474;19;19926;-62
2023/03/04 04:17:59;;;;;;;;;;;;;;;7.99;68.62;102507.13;7356520;19;19923;-61
2023/03/04 04:20:26;;;;;;;;;;;;;;;7.99;68.55;102509.75;7361070;19;19915;-58
2023/03/04 04:22:53;;;;;;;;;;;;;;;7.99;68.84;102511.53;7359690;19;19919;-60
2023/03/04 04:25:20;;;;;;;;;;;;;;;7.98;69.45;102512.44;7360649;19;19919;-60
2023/03/04 04:27:47;;;;;;;;;;;;;;;7.94;70.89;102510.97;7361135;19;19933;-59
2023/03/04 04:30:14;;;;;;;;;;;;;;;7.92;72.10;102510.25;7356824;19;20544;-56
2023/03/04 04:32:41;;;;;;;;;;;;;;;7.90;72.54;102515.56;7358459;19;20640;-61
2023/03/04 04:35:08;;;;;;;;;;;;;;;7.87;72.68;102515.75;7358733;19;20591;-60
2023/03/04 04:37:35;;;;;;;;;;;;;;;7.87;72.98;102509.69;7359651;19;20571;-62
2023/03/04 04:40:03;;;;;;;;;;;;;;;7.90;73.03;102512.94;7356974;19;19914;-60
2023/03/04 04:42:32;;;;;;;;;;;;;;;7.91;73.51;102524.25;7358669;19;19919;-61
2023/03/04 04:44:59;;;;;;;;;;;;;;;7.84;74.32;102528.19;7358175;19;19922;-61
2023/03/04 04:47:26;;;;;;;;;;;;;;;7.82;75.12;102530.06;7361234;19;20019;-61
2023/03/04 04:49:53;;;;;;;;;;;;;;;7.81;76.00;102531.00;7360887;19;20334;-62
2023/03/04 04:52:20;;;;;;;;;;;;;;;7.75;76.26;102524.34;7356770;19;20307;-60
2023/03/04 04:54:46;;;;;;;;;;;;;;;7.75;76.75;102526.97;7363487;19;20352;-60
2023/03/04 04:57:13;;;;;;;;;;;;;;;7.58;77.31;102527.13;7359249;19;19990;-61
2023/03/04 04:59:40;;;;;;;;;;;;;;;7.60;77.83;102527.88;7363489;19;19915;-61
2023/03/04 05:02:07;;;;;;;;;;;;;;;7.54;77.83;102528.25;7357123;19;20336;-61
2023/03/04 05:04:34;;;;;;;;;;;;;;;7.50;78.62;102527.59;7362668;19;19922;-61
2023/03/04 05:07:01;;;;;;;;;;;;;;;7.50;78.83;102527.59;7359212;19;19926;-61
2023/03/04 05:09:28;;;;;;;;;;;;;;;7.50;78.81;102521.50;7360534;19;20228;-61
2023/03/04 05:11:55;;;;;;;;;;;;;;;7.50;79.41;102532.00;7359215;19;19926;-60
2023/03/04 05:14:22;;;;;;;;;;;;;;;7.50;79.56;102530.22;7359637;19;19929;-62
2023/03/04 05:16:51;;;;;;;;;;;;;;;7.57;78.68;102538.53;7357343;19;19930;-60
2023/03/04 05:19:19;;;;;;;;;;;;;;;7.54;77.76;102529.09;7361800;19;19919;-60
2023/03/04 05:21:46;;;;;;;;;;;;;;;7.57;78.32;102535.91;7361468;19;19925;-60
2023/03/04 05:24:13;;;;;;;;;;;;;;;7.60;78.61;102533.13;7358080;19;19930;-61
2023/03/04 05:26:40;;;;;;;;;;;;;;;7.61;77.69;102542.69;7357900;19;20002;-59
2023/03/04 05:29:06;;;;;;;;;;;;;;;7.65;75.79;102538.94;7357004;19;20380;-64
2023/03/04 05:31:33;;;;;;;;;;;;;;;7.65;75.63;102542.41;7353487;19;19929;-60
2023/03/04 05:34:00;;;;;;;;;;;;;;;7.64;75.39;102550.34;7359889;19;19938;-64
2023/03/04 05:36:27;;;;;;;;;;;;;;;7.68;75.09;102543.97;7357254;19;20427;-59
2023/03/04 05:38:54;;;;;;;;;;;;;;;7.66;74.70;102544.09;7357628;19;19919;-60
2023/03/04 05:41:21;;;;;;;;;;;;;;;7.66;74.71;102551.94;7355466;19;19926;-60
2023/03/04 05:43:48;;;;;;;;;;;;;;;7.65;74.18;102552.88;7355643;19;19923;-58
2023/03/04 05:46:16;;;;;;;;;;;;;;;7.67;74.60;102547.53;7356983;19;20665;-61
2023/03/04 05:48:44;;;;;;;;;;;;;;;7.61;75.34;102550.53;7358389;19;19934;-61
2023/03/04 05:51:11;;;;;;;;;;;;;;;7.59;75.91;102542.75;7356033;19;19935;-60
2023/03/04 05:53:40;;;;;;;;;;;;;;;7.56;76.16;102556.06;7357062;19;19933;-61
2023/03/04 05:56:08;;;;;;;;;;;;;;;7.55;76.20;102543.88;7355498;19;19994;-61
2023/03/04 05:58:34;;;;;;;;;;;;;;;7.48;76.63;102545.16;7353628;19;20010;-60
2023/03/04 06:01:02;;;;;;;;;;;;;;;7.49;77.00;102546.00;7355250;19;20320;-61
2023/03/04 06:03:29;;;;;;;;;;;;;;;7.49;77.27;102549.47;7356040;19;20260;-59
2023/03/04 06:05:56;;;;;;;;;;;;;;;7.51;76.89;102552.84;7357649;19;19998;-61
2023/03/04 06:08:23;;;;;;;;;;;;;;;7.52;77.44;102556.28;7354588;19;19962;-61
2023/03/04 06:10:52;;;;;;;;;;;;;;;7.54;77.87;102549.19;7353773;19;19927;-60
2023/03/04 06:13:19;;;;;;;;;;;;;;;7.58;76.76;102553.31;7358223;19;19941;-60
2023/03/04 06:15:46;;;;;;;;;;;;;;;7.60;76.94;102554.09;7360025;19;19942;-62
2023/03/04 06:18:13;;;;;;;;;;;;;;;7.61;77.58;102556.63;7361014;19;19923;-60
2023/03/04 06:20:40;;;;;;;;;;;;;;;7.62;76.11;102547.81;7364102;19;19918;-61
2023/03/04 06:23:07;;;;;;;;;;;;;;;7.63;74.98;102552.13;7360791;19;20014;-62
2023/03/04 06:25:34;;;;;;;;;;;;;;;7.63;75.01;102544.25;7363053;19;19933;-62
2023/03/04 06:28:01;;;;;;;;;;;;;;;7.60;74.15;102546.22;7363838;19;19926;-59
2023/03/04 06:30:27;;;;;;;;;;;;;;;7.54;74.71;102552.66;7360211;19;20003;-60
2023/03/04 06:32:54;;;;;;;;;;;;;;;7.56;74.95;102555.19;7362726;19;19923;-60
2023/03/04 06:35:21;;;;;;;;;;;;;;;7.56;76.04;102558.66;7364821;19;19930;-60
2023/03/04 06:37:48;;;;;;;;;;;;;;;7.53;76.93;102561.44;7359795;19;20328;-60
2023/03/04 06:40:16;;;;;;;;;;;;;;;7.51;77.59;102559.88;7364521;19;19923;-62
2023/03/04 06:42:43;;;;;;;;;;;;;;;7.49;77.62;102561.72;7364403;19;19923;-60
2023/03/04 06:45:10;;;;;;;;;;;;;;;7.47;78.04;102561.81;7359959;19;19915;-61
2023/03/04 06:47:37;;;;;;;;;;;;;;;7.45;78.04;102554.97;7361625;19;20328;-60
2023/03/04 06:50:05;;;;;;;;;;;;;;;7.41;78.35;102566.56;7366092;19;19919;-58
2023/03/04 06:52:32;;;;;;;;;;;;;;;7.38;78.38;102569.34;7358027;19;19929;-63
2023/03/04 06:54:59;;;;;;;;;;;;;;;7.34;78.56;102575.69;7364365;19;19962;-62
2023/03/04 06:57:26;;;;;;;;;;;;;;;7.32;77.97;102571.41;7360145;19;19922;-62
2023/03/04 06:59:53;;;;;;;;;;;;;;;7.31;77.84;102566.25;7361617;19;20289;-58
2023/03/04 07:02:20;;;;;;;;;;;;;;;7.30;78.13;102569.81;7359258;19;20011;-61
2023/03/04 07:04:47;;;;;;;;;;;;;;;7.36;78.61;102574.69;7364974;19;19931;-58
2023/03/04 07:07:14;;;;;;;;;;;;;;;7.42;78.37;102582.19;7362830;19;19918;-61
2023/03/04 07:09:40;;;;;;;;;;;;;;;7.45;78.09;102582.00;7361133;19;19919;-61
2023/03/04 07:12:07;;;;;;;;;;;;;;;7.49;77.65;102588.75;7362318;19;20013;-62
2023/03/04 07:14:34;;;;;;;;;;;;;;;7.52;77.24;102595.56;7364102;19;19922;-61
2023/03/04 07:17:01;;;;;;;;;;;;;;;7.53;77.91;102592.88;7359838;19;19923;-60
2023/03/04 07:19:28;;;;;;;;;;;;;;;7.59;76.81;102586.44;7363838;19;20738;-65
2023/03/04 07:21:55;;;;;;;;;;;;;;;7.61;76.42;102589.81;7362086;19;19950;-62
2023/03/04 07:24:22;;;;;;;;;;;;;;;7.62;76.81;102596.72;7362771;19;19915;-60
2023/03/04 07:26:49;;;;;;;;;;;;;;;7.61;76.58;102579.34;7360592;19;19919;-60
2023/03/04 07:29:16;;;;;;;;;;;;;;;7.63;76.26;102591.41;7364085;19;19938;-62
2023/03/04 07:31:43;;;;;;;;;;;;;;;7.65;76.62;102596.56;7359915;19;19918;-61
2023/03/04 07:34:12;;;;;;;;;;;;;;;7.70;76.10;102592.75;7363141;19;19938;-60
2023/03/04 07:36:39;;;;;;;;;;;;;;;7.71;75.22;102593.59;7360095;19;20480;-61
2023/03/04 07:39:06;;;;;;;;;;;;;;;7.71;75.49;102594.44;7359903;19;19929;-58
2023/03/04 07:41:36;;;;;;;;;;;;;;;7.71;75.66;102591.81;7363675;19;19933;-63
2023/03/04 07:44:03;;;;;;;;;;;;;;;7.68;75.70;102594.59;7361917;19;20340;-62
2023/03/04 07:46:30;;;;;;;;;;;;;;;7.71;75.79;102604.91;7359328;19;19970;-59
2023/03/04 07:48:57;;;;;;;;;;;;;;;7.67;75.84;102603.38;7364174;19;20189;-61
2023/03/04 07:51:25;;;;;;;;;;;;;;;7.65;75.95;102614.91;7362385;19;20029;-61
2023/03/04 07:53:54;;;;;;;;;;;;;;;7.64;76.48;102608.81;7360428;19;19930;-61
2023/03/04 07:56:22;;;;;;;;;;;;;;;7.67;76.81;102607.78;7360929;19;20280;-57
2023/03/04 07:58:52;;;;;;;;;;;;;;;7.73;76.87;102603.03;7357058;19;19927;-62
2023/03/04 08:01:21;;;;;;;;;;;;;;;7.81;76.79;102604.38;7359894;19;19922;-61
2023/03/04 08:03:48;;;;;;;;;;;;;;;7.84;75.61;102609.41;7360949;19;19919;-57
2023/03/04 08:06:16;;;;;;;;;;;;;;;7.85;75.66;102614.56;7360490;19;19926;-59
2023/03/04 08:08:43;;;;;;;;;;;;;;;7.88;75.96;102606.50;7360506;19;19923;-64
2023/03/04 08:11:12;;;;;;;;;;;;;;;7.98;75.41;102614.66;7361274;19;19925;-62
2023/03/04 08:13:40;;;;;;;;;;;;;;;8.00;74.57;102618.06;7362184;19;20356;-62
2023/03/04 08:16:07;;;;;;;;;;;;;;;8.01;74.92;102610.09;7358858;19;19921;-62
2023/03/04 08:18:34;;;;;;;;;;;;;;;8.03;74.62;102610.00;7357911;19;20315;-62
2023/03/04 08:21:01;;;;;;;;;;;;;;;8.00;75.45;102623.28;7361202;19;19945;-62
2023/03/04 08:23:28;;;;;;;;;;;;;;;7.97;75.89;102620.88;7358847;19;20565;-62
2023/03/04 08:25:55;;;;;;;;;;;;;;;7.97;76.04;102619.09;7359455;19;19978;-62
2023/03/04 08:28:22;;;;;;;;;;;;;;;7.99;76.47;102614.59;7360655;19;21550;-61
2023/03/04 08:30:52;;;;;;;;;;;;;;;8.01;76.50;102620.59;7356273;19;19922;-63
2023/03/04 08:33:19;;;;;;;;;;;;;;;8.03;76.46;102617.84;7359699;19;19958;-64
2023/03/04 08:35:46;;;;;;;;;;;;;;;8.10;76.24;102621.81;7358103;19;19918;-61
2023/03/04 08:38:13;;;;;;;;;;;;;;;8.10;74.75;102622.66;7356272;19;19923;-61
2023/03/04 08:40:40;;;;;;;;;;;;;;;8.10;74.81;102620.03;7359257;19;19915;-63
2023/03/04 08:43:07;;;;;;;;;;;;;;;8.12;74.77;102626.03;7359179;19;19919;-59
2023/03/04 08:45:34;;;;;;;;;;;;;;;8.13;75.29;102625.06;7360123;19;19926;-62
2023/03/04 08:48:01;;;;;;;;;;;;;;;8.20;74.98;102620.31;7357453;19;19941;-66
2023/03/04 08:50:28;;;;;;;;;;;;;;;8.24;74.79;102623.59;7361372;19;19954;-63
2023/03/04 08:52:55;;;;;;;;;;;;;;;8.24;74.66;102623.59;7355298;19;19918;-63
2023/03/04 08:55:21;;;;;;;;;;;;;;;8.27;74.69;102620.78;7358208;19;19922;-64
2023/03/04 08:57:48;;;;;;;;;;;;;;;8.33;75.12;102613.41;7358159;19;20006;-61
2023/03/04 09:00:17;;;;;;;;;;;;;;;8.37;75.19;102616.72;7359619;19;20314;-60
2023/03/04 09:02:45;;;;;;;;;;;;;;;8.37;74.78;102622.81;7356958;19;20290;-62
2023/03/04 09:05:12;;;;;;;;;;;;;;;8.36;74.02;102621.09;7361041;19;20015;-61
2023/03/04 09:07:39;;;;;;;;;;;;;;;8.37;74.86;102614.94;7358105;19;20009;-61
2023/03/04 09:10:07;;;;;;;;;;;;;;;8.38;74.41;102613.97;7362514;19;19931;-60
2023/03/04 09:12:34;;;;;;;;;;;;;;;8.40;73.90;102614.72;7358377;19;19982;-60
2023/03/04 09:15:02;;;;;;;;;;;;;;;8.40;73.64;102606.88;7361989;19;19927;-62
2023/03/04 09:17:38;;;;;;;;;;;;;;;8.44;73.54;102603.09;7358792;19;20065;-62
2023/03/04 09:20:09;;;;;;;;;;;;;;;8.47;72.74;102607.34;7359195;19;19934;-63
2023/03/04 09:22:41;;;;;;;;;;;;;;;8.48;72.47;102606.41;7357798;19;19926;-61
2023/03/04 09:25:08;;;;;;;;;;;;;;;8.47;72.48;102617.81;7357821;19;19931;-60
2023/03/04 09:27:38;;;;;;;;;;;;;;;8.48;72.59;102615.09;7356630;19;20484;-63
2023/03/04 09:30:07;;;;;;;;;;;;;;;8.52;72.48;102606.13;7358115;19;19946;-61
2023/03/04 09:32:37;;;;;;;;;;;;;;;8.53;72.54;102615.66;7357162;19;20318;-61
2023/03/04 09:35:04;;;;;;;;;;;;;;;8.43;72.45;102611.09;7357414;19;19994;-60
2023/03/04 09:37:31;;;;;;;;;;;;;;;8.41;73.34;102613.81;7354251;19;19926;-59
2023/03/04 09:39:58;;;;;;;;;;;;;;;8.41;72.52;102611.19;7357201;19;19933;-60
2023/03/04 09:42:29;;;;;;;;;;;;;;;8.46;72.59;102614.34;7358412;19;19919;-62
2023/03/04 09:44:57;;;;;;;;;;;;;;;8.46;72.13;102614.34;7353439;19;19931;-61
2023/03/04 09:47:25;;;;;;;;;;;;;;;8.50;72.00;102615.00;7347155;19;19923;-61
2023/03/04 09:49:55;;;;;;;;;;;;;;;8.55;71.66;102608.53;7359232;19;20506;-60
2023/03/04 09:52:26;;;;;;;;;;;;;;;8.56;71.50;102615.47;7360330;19;19945;-62
2023/03/04 09:54:56;;;;;;;;;;;;;;;8.59;71.61;102610.03;7364380;19;19927;-60
2023/03/04 09:57:29;;;;;;;;;;;;;;;8.58;71.61;102613.56;7364522;19;19994;-63
2023/03/04 10:00:01;;;;;;;;;;;;;;;8.62;71.94;102611.63;7363045;19;20031;-60
2023/03/04 10:02:37;;;;;;;;;;;;;;;8.66;71.79;102610.50;7363855;19;20364;-60
2023/03/04 10:05:09;;;;;;;;;;;;;;;8.70;71.08;102614.59;7362507;19;20404;-61
2023/03/04 10:07:39;;;;;;;;;;;;;;;8.76;71.60;102606.34;7359081;19;19930;-63
2023/03/04 10:10:09;;;;;;;;;;;;;;;8.81;72.21;102609.53;7363838;19;20247;-61
2023/03/04 10:12:41;;;;;;;;;;;;;;;8.88;71.54;102615.25;7363688;19;19987;-63
2023/03/04 10:15:11;;;;;;;;;;;;;;;8.91;71.75;102610.63;7361042;19;21536;-61
2023/03/04 10:17:41;;;;;;;;;;;;;;;9.01;70.74;102618.75;7363227;19;19918;-61
2023/03/04 10:20:15;;;;;;;;;;;;;;;9.09;70.28;102620.91;7366231;19;19919;-61
2023/03/04 10:22:46;;;;;;;;;;;;;;;9.08;69.56;102617.44;7367152;19;19997;-63
2023/03/04 10:25:15;;;;;;;;;;;;;;;9.11;69.52;102605.88;7365377;19;20294;-62
2023/03/04 10:27:47;;;;;;;;;;;;;;;9.11;69.28;102611.13;7365964;19;19953;-63
2023/03/04 10:30:17;;;;;;;;;;;;;;;9.17;69.24;102608.09;7359855;19;20447;-61
2023/03/04 10:32:45;;;;;;;;;;;;;;;9.21;69.87;102609.59;7363052;19;19934;-61
2023/03/04 10:35:13;;;;;;;;;;;;;;;9.23;69.75;102605.94;7359008;19;19915;-61
2023/03/04 10:37:43;;;;;;;;;;;;;;;9.25;69.46;102604.03;7365188;19;20007;-61
2023/03/04 10:40:13;;;;;;;;;;;;;;;9.23;70.06;102602.47;7361473;19;19947;-61
2023/03/04 10:42:40;;;;;;;;;;;;;;;9.17;70.71;102597.59;7361928;19;19919;-62
2023/03/04 10:45:19;;;;;;;;;;;;;;;9.14;70.91;102600.44;7362219;19;20341;-63
2023/03/04 10:47:51;;;;;;;;;;;;;;;9.15;70.83;102596.84;7360271;19;19927;-61
2023/03/04 10:50:21;;;;;;;;;;;;;;;9.13;71.27;102590.88;7364344;19;20743;-60
2023/03/04 10:52:51;;;;;;;;;;;;;;;9.17;72.63;102602.84;7361647;19;19919;-58
2023/03/04 10:55:21;;;;;;;;;;;;;;;9.21;71.61;102585.94;7361897;19;20494;-57
2023/03/04 10:57:51;;;;;;;;;;;;;;;9.33;70.96;102587.78;7362411;19;19955;-63
2023/03/04 11:00:22;;;;;;;;;;;;;;;9.35;68.74;102580.63;7359344;19;19919;-61
2023/03/04 11:02:58;;;;;;;;;;;;;;;9.32;68.15;102588.72;7362810;19;19929;-63
2023/03/04 11:05:25;;;;;;;;;;;;;;;9.22;68.06;102582.38;7362668;19;19923;-59
2023/03/04 11:07:53;;;;;;;;;;;;;;;9.15;68.18;102581.94;7361717;19;20018;-62
2023/03/04 11:10:24;;;;;;;;;;;;;;;9.11;68.53;102577.00;7360792;19;19985;-60
2023/03/04 11:12:55;;;;;;;;;;;;;;;9.04;68.06;102576.53;7359519;19;19939;-61
2023/03/04 11:15:26;;;;;;;;;;;;;;;9.07;68.39;102572.88;7366713;19;19931;-60
2023/03/04 11:17:55;;;;;;;;;;;;;;;9.06;67.70;102574.66;7364784;19;20430;-62
2023/03/04 11:20:23;;;;;;;;;;;;;;;9.05;66.85;102569.50;7363010;19;19973;-62
2023/03/04 11:22:51;;;;;;;;;;;;;;;9.05;66.69;102572.97;7364465;19;20019;-60
2023/03/04 11:25:21;;;;;;;;;;;;;;;9.01;66.96;102574.13;7362798;19;19935;-63
2023/03/04 11:27:52;;;;;;;;;;;;;;;8.97;67.15;102567.41;7365342;19;20331;-62
2023/03/04 11:30:20;;;;;;;;;;;;;;;8.94;68.09;102563.16;7361815;19;20013;-62
2023/03/04 11:32:48;;;;;;;;;;;;;;;8.97;68.29;102563.00;7361761;19;19929;-61
2023/03/04 11:35:19;;;;;;;;;;;;;;;8.98;68.81;102559.44;7363444;19;20273;-61
2023/03/04 11:37:50;;;;;;;;;;;;;;;8.95;68.57;102551.72;7360407;19;20706;-64
2023/03/04 11:40:41;;;;;;;;;;;;;;;8.95;68.60;102550.88;7360624;19;20176;-62
2023/03/04 11:43:21;;;;;;;;;;;;;;;8.97;71.07;102557.75;7362188;19;19919;-63
2023/03/04 11:45:59;;;;;;;;;;;;;;;9.02;68.88;102560.91;7359884;19;19922;-61
2023/03/04 11:48:26;;;;;;;;;;;;;;;9.01;68.05;102568.88;7362480;19;20500;-67
2023/03/04 11:50:57;;;;;;;;;;;;;;;8.91;67.65;102566.00;7361954;19;19922;-60
2023/03/04 11:53:27;;;;;;;;;;;;;;;8.75;67.77;102554.81;7360447;19;19950;-61
2023/03/04 11:55:57;;;;;;;;;;;;;;;8.74;68.40;102545.25;7361570;19;19919;-58
2023/03/04 11:58:28;;;;;;;;;;;;;;;8.74;68.00;102555.72;7360280;19;19919;-65
2023/03/04 12:01:00;;;;;;;;;;;;;;;8.78;68.20;102552.00;7359748;19;20265;-62
2023/03/04 12:03:30;;;;;;;;;;;;;;;8.72;67.75;102555.00;7361322;19;20079;-62
2023/03/04 12:06:00;;;;;;;;;;;;;;;8.71;67.52;102540.19;7362919;19;19911;-62
2023/03/04 12:08:29;;;;;;;;;;;;;;;8.76;67.73;102547.78;7364514;19;20339;-58
2023/03/04 12:11:01;;;;;;;;;;;;;;;8.77;67.40;102534.56;7362169;19;21039;-62
2023/03/04 12:13:35;;;;;;;;;;;;;;;8.83;67.58;102530.69;7360776;19;20623;-60
2023/03/04 12:16:02;;;;;;;;;;;;;;;8.82;68.50;102524.59;7357210;19;20046;-65
2023/03/04 12:18:33;;;;;;;;;;;;;;;8.86;68.47;102533.13;7355254;19;20342;-60
2023/03/04 12:21:01;;;;;;;;;;;;;;;8.88;68.99;102521.59;7359939;19;20443;-60
2023/03/04 12:23:37;;;;;;;;;;;;;;;8.87;68.56;102519.91;7358934;19;19986;-61
2023/03/04 12:26:13;;;;;;;;;;;;;;;8.92;69.09;102520.44;7358688;19;19929;-62
2023/03/04 12:28:42;;;;;;;;;;;;;;;8.92;67.75;102515.19;7360005;19;19918;-63
2023/03/04 12:31:13;;;;;;;;;;;;;;;8.98;68.11;102513.97;7360438;19;19927;-62
2023/03/04 12:33:45;;;;;;;;;;;;;;;9.02;66.91;102515.44;7359816;19;19926;-64
2023/03/04 12:36:20;;;;;;;;;;;;;;;9.03;66.29;102514.50;7361955;19;19930;-61
2023/03/04 12:38:51;;;;;;;;;;;;;;;8.95;66.85;102514.97;7358746;19;19923;-62
2023/03/04 12:41:19;;;;;;;;;;;;;;;8.77;67.45;102512.72;7359544;19;19931;-60
2023/03/04 12:43:47;;;;;;;;;;;;;;;8.82;68.13;102494.91;7360079;19;20152;-58
2023/03/04 12:46:18;;;;;;;;;;;;;;;8.83;68.67;102504.47;7356390;19;19925;-62
2023/03/04 12:48:49;;;;;;;;;;;;;;;8.92;67.78;102496.81;7361707;19;19929;-65
2023/03/04 12:51:20;;;;;;;;;;;;;;;8.97;66.57;102486.00;7359493;19;19918;-63
2023/03/04 12:53:49;;;;;;;;;;;;;;;8.99;65.83;102487.59;7360915;19;20376;-61